Weather at Batlava-Donja Penduha Air Base [CLOSED]

Public forecast

Using degrees Celsius for public forecast. Weather courtesy of forecast.io.

Closest aviation weather report (METAR) to Batlava-Donja Penduha Air Base

Closest report is Priština Adem Jashari International Airport, 18.5 nm (34.4 km) SSW.

2022/11/30 23:30 (retrieved 10 minutes ago)

BKPR 302330Z 01015KT 9999 SCT018 BKN025 03/02 Q1016 NOSIG

Closest aviation forecast (TAF) to Batlava-Donja Penduha Air Base

Closest forecast is Priština Adem Jashari International Airport, 18.5 nm (34.4 km) SSW.

2022/11/30 18:00 Ammendment (retrieved 6 hours ago)

TAF AMD BKPR 301820Z 3018/0118 01008KT 9999 FEW015 BKN030 TEMPO 3018/0117 01018KT 3000 RASN BKN014